createdAt,value
2023-01-31T00:01:20.781Z,4.32
2023-01-31T00:03:48.274Z,4.27
2023-01-31T00:06:24.810Z,4.25
2023-01-31T00:08:52.453Z,4.23
2023-01-31T00:11:21.260Z,4.25
2023-01-31T00:13:48.016Z,4.25
2023-01-31T00:16:15.960Z,4.31
2023-01-31T00:18:43.064Z,4.21
2023-01-31T00:21:14.754Z,4.25
2023-01-31T00:23:42.625Z,4.28
2023-01-31T00:26:23.515Z,4.26
2023-01-31T00:28:51.901Z,4.36
2023-01-31T00:31:19.885Z,4.34
2023-01-31T00:33:50.191Z,4.26
2023-01-31T00:36:19.200Z,4.31
2023-01-31T00:38:49.508Z,4.27
2023-01-31T00:41:18.661Z,4.34
2023-01-31T00:43:45.138Z,4.28
2023-01-31T00:46:11.958Z,4.39
2023-01-31T00:48:38.851Z,4.37
2023-01-31T00:51:06.109Z,4.39
2023-01-31T00:53:32.704Z,4.36
2023-01-31T00:56:07.276Z,4.32
2023-01-31T00:58:37.135Z,4.38
2023-01-31T01:01:14.331Z,4.41
2023-01-31T01:03:42.536Z,4.34
2023-01-31T01:06:09.991Z,4.34
2023-01-31T01:08:37.668Z,4.37
2023-01-31T01:11:13.441Z,4.44
2023-01-31T01:13:40.228Z,4.34
2023-01-31T01:16:12.546Z,4.40
2023-01-31T01:18:39.463Z,4.46
2023-01-31T01:21:14.432Z,4.39
2023-01-31T01:23:42.491Z,4.41
2023-01-31T01:26:17.820Z,4.45
2023-01-31T01:28:44.636Z,4.50
2023-01-31T01:31:13.026Z,4.46
2023-01-31T01:33:40.544Z,4.47
2023-01-31T01:36:11.655Z,4.52
2023-01-31T01:38:38.108Z,4.55
2023-01-31T01:41:05.253Z,4.57
2023-01-31T01:43:46.902Z,4.50
2023-01-31T01:46:21.307Z,4.55
2023-01-31T01:48:51.285Z,4.48
2023-01-31T01:51:19.786Z,4.53
2023-01-31T01:53:50.380Z,4.46
2023-01-31T01:56:23.602Z,4.42
2023-01-31T01:59:00.551Z,4.35
2023-01-31T02:01:31.857Z,4.43
2023-01-31T02:03:58.342Z,4.44
2023-01-31T02:06:25.830Z,4.41
2023-01-31T02:08:53.930Z,4.37
2023-01-31T02:11:24.085Z,4.35
2023-01-31T02:13:56.257Z,4.32
2023-01-31T02:16:22.743Z,4.25
2023-01-31T02:21:48.801Z,4.16
2023-01-31T02:24:53.207Z,4.26
2023-01-31T02:27:59.998Z,4.17
2023-01-31T02:30:58.783Z,4.18
2023-01-31T02:33:34.803Z,4.16
2023-01-31T02:36:20.105Z,4.10
2023-01-31T02:39:02.892Z,4.04
2023-01-31T02:41:38.672Z,4.02
2023-01-31T02:44:50.675Z,4.00
2023-01-31T02:47:35.191Z,3.98
2023-01-31T02:50:11.274Z,4.06
2023-01-31T02:52:51.134Z,3.93
2023-01-31T02:55:45.596Z,4.01
2023-01-31T02:58:16.244Z,3.94
2023-01-31T03:00:45.953Z,3.95
2023-01-31T03:03:31.963Z,3.85
2023-01-31T03:06:35.866Z,3.91
2023-01-31T03:09:24.990Z,3.85
2023-01-31T03:12:19.520Z,3.81
2023-01-31T03:14:51.590Z,3.79
2023-01-31T03:17:32.973Z,3.84
2023-01-31T03:20:05.404Z,3.79
2023-01-31T03:22:44.364Z,3.81
2023-01-31T03:25:15.041Z,3.75
2023-01-31T03:27:48.210Z,3.77
2023-01-31T03:30:21.122Z,3.77
2023-01-31T03:32:57.596Z,3.76
2023-01-31T03:35:28.611Z,3.73
2023-01-31T03:38:06.068Z,3.70
2023-01-31T03:40:48.109Z,3.71
2023-01-31T03:43:17.994Z,3.71
2023-01-31T03:46:09.422Z,3.77
2023-01-31T03:48:42.950Z,3.65
2023-01-31T03:51:15.370Z,3.66
2023-01-31T03:53:51.377Z,3.66
2023-01-31T03:56:42.901Z,3.68
2023-01-31T03:59:15.377Z,3.65
2023-01-31T04:01:48.563Z,3.63
2023-01-31T04:04:21.527Z,3.66
2023-01-31T04:06:48.149Z,3.66
2023-01-31T04:09:15.401Z,3.59
2023-01-31T04:11:43.059Z,3.64
2023-01-31T04:14:10.153Z,3.61
2023-01-31T04:16:36.834Z,3.61
2023-01-31T04:19:03.307Z,3.61
2023-01-31T04:21:29.760Z,3.69
2023-01-31T04:23:56.140Z,3.68
2023-01-31T04:26:22.599Z,3.63
2023-01-31T04:28:49.299Z,3.68
2023-01-31T04:31:15.793Z,3.70
2023-01-31T04:33:42.317Z,3.61
2023-01-31T04:36:09.214Z,3.61
2023-01-31T04:38:35.654Z,3.71
2023-01-31T04:41:02.065Z,3.63
2023-01-31T04:43:28.454Z,3.67
2023-01-31T04:45:54.847Z,3.67
2023-01-31T04:48:21.243Z,3.79
2023-01-31T04:50:47.636Z,3.78
2023-01-31T04:53:14.035Z,3.81
2023-01-31T04:55:40.447Z,3.88
2023-01-31T04:58:07.761Z,3.80
2023-01-31T05:00:34.439Z,3.92
2023-01-31T05:03:02.004Z,3.91
2023-01-31T05:05:28.488Z,3.90
2023-01-31T05:07:54.942Z,3.92
2023-01-31T05:10:21.343Z,3.93
2023-01-31T05:12:47.757Z,3.84
2023-01-31T05:15:14.379Z,3.85
2023-01-31T05:17:40.783Z,3.88
2023-01-31T05:20:08.130Z,3.97
2023-01-31T05:22:34.533Z,3.97
2023-01-31T05:25:00.967Z,4.00
2023-01-31T05:27:27.446Z,4.01
2023-01-31T05:29:54.242Z,4.06
2023-01-31T05:32:20.769Z,4.12
2023-01-31T05:34:47.191Z,4.06
2023-01-31T05:37:13.600Z,4.02
2023-01-31T05:39:40.062Z,4.17
2023-01-31T05:42:06.612Z,4.12
2023-01-31T05:44:33.388Z,4.19
2023-01-31T05:47:01.406Z,4.13
2023-01-31T05:49:32.651Z,4.12
2023-01-31T05:51:59.863Z,4.16
2023-01-31T05:54:26.284Z,4.17
2023-01-31T05:56:52.674Z,4.15
2023-01-31T05:59:19.130Z,4.12
2023-01-31T06:01:45.760Z,4.18
2023-01-31T06:04:12.316Z,4.21
2023-01-31T06:06:38.697Z,4.26
2023-01-31T06:09:05.086Z,4.27
2023-01-31T06:11:31.944Z,4.19
2023-01-31T06:13:58.782Z,4.23
2023-01-31T06:16:25.624Z,4.28
2023-01-31T06:18:52.133Z,4.31
2023-01-31T06:21:18.519Z,4.28
2023-01-31T06:23:46.203Z,4.31
2023-01-31T06:26:12.720Z,4.21
2023-01-31T06:28:39.221Z,4.29
2023-01-31T06:31:09.716Z,4.35
2023-01-31T06:33:46.564Z,4.30
2023-01-31T06:36:15.997Z,4.29
2023-01-31T06:38:43.788Z,4.31
2023-01-31T06:41:10.190Z,4.20
2023-01-31T06:43:36.591Z,4.24
2023-01-31T06:46:03.036Z,4.30
2023-01-31T06:48:29.450Z,4.28
2023-01-31T06:50:56.005Z,4.35
2023-01-31T06:53:22.576Z,4.30
2023-01-31T06:55:49.084Z,4.26
2023-01-31T06:58:15.515Z,4.26
2023-01-31T07:00:41.896Z,4.35
2023-01-31T07:03:08.325Z,4.38
2023-01-31T07:05:34.730Z,4.30
2023-01-31T07:08:01.147Z,4.34
2023-01-31T07:10:27.575Z,4.33
2023-01-31T07:12:53.957Z,4.44
2023-01-31T07:15:20.797Z,4.43
2023-01-31T07:17:47.849Z,4.32
2023-01-31T07:20:14.264Z,4.28
2023-01-31T07:22:40.662Z,4.33
2023-01-31T07:25:07.489Z,4.32
2023-01-31T07:27:33.893Z,4.30
2023-01-31T07:30:00.314Z,4.40
2023-01-31T07:32:30.097Z,4.45
2023-01-31T07:34:56.515Z,4.45
2023-01-31T07:37:22.957Z,4.46
2023-01-31T07:39:49.475Z,4.55
2023-01-31T07:42:15.883Z,4.50
2023-01-31T07:44:43.018Z,4.52
2023-01-31T07:47:09.436Z,4.45
2023-01-31T07:49:35.834Z,4.60
2023-01-31T07:52:02.266Z,4.52
2023-01-31T07:54:28.679Z,4.58
2023-01-31T07:56:55.080Z,4.59
2023-01-31T07:59:21.517Z,4.55
2023-01-31T08:02:06.678Z,4.61
2023-01-31T08:04:34.257Z,4.67
2023-01-31T08:07:02.948Z,4.77
2023-01-31T08:09:29.898Z,4.71
2023-01-31T08:11:56.338Z,4.75
2023-01-31T08:14:28.338Z,4.71
2023-01-31T08:16:55.792Z,4.75
2023-01-31T08:19:22.802Z,4.71
2023-01-31T08:21:49.650Z,4.76
2023-01-31T08:24:16.251Z,4.75
2023-01-31T08:26:43.539Z,4.77
2023-01-31T08:29:10.028Z,4.66
2023-01-31T08:31:36.566Z,4.73
2023-01-31T08:34:03.254Z,4.73
2023-01-31T08:36:34.050Z,4.80
2023-01-31T08:39:00.704Z,4.80
2023-01-31T08:41:29.238Z,4.76
2023-01-31T08:43:58.941Z,4.82
2023-01-31T08:46:29.498Z,4.85
2023-01-31T08:48:55.961Z,4.99
2023-01-31T08:51:23.402Z,4.99
2023-01-31T08:53:50.181Z,4.94
2023-01-31T08:56:16.888Z,4.89
2023-01-31T08:58:44.767Z,5.03
2023-01-31T09:01:16.833Z,5.02
2023-01-31T09:03:45.384Z,4.89
2023-01-31T09:06:20.778Z,5.06
2023-01-31T09:08:47.309Z,5.08
2023-01-31T09:11:19.042Z,5.04
2023-01-31T09:13:47.612Z,5.12
2023-01-31T09:16:14.918Z,5.21
2023-01-31T09:18:42.074Z,5.17
2023-01-31T09:21:19.717Z,5.27
2023-01-31T09:23:46.883Z,5.28
2023-01-31T09:26:14.771Z,5.24
2023-01-31T09:28:43.219Z,5.17
2023-01-31T09:31:15.620Z,5.31
2023-01-31T09:33:42.760Z,5.29
2023-01-31T09:36:11.912Z,5.40
2023-01-31T09:38:38.711Z,5.47
2023-01-31T09:41:14.837Z,5.43
2023-01-31T09:43:47.443Z,5.45
2023-01-31T09:46:18.899Z,5.53
2023-01-31T09:48:49.861Z,5.50
2023-01-31T09:51:16.912Z,5.52
2023-01-31T09:53:44.311Z,5.48
2023-01-31T09:56:39.926Z,5.58
2023-01-31T09:59:28.294Z,5.51
2023-01-31T10:02:28.309Z,5.45
2023-01-31T10:05:06.789Z,5.56
2023-01-31T10:07:41.110Z,5.62
2023-01-31T10:10:35.051Z,5.57
2023-01-31T10:13:11.536Z,5.64
2023-01-31T10:15:47.965Z,5.62
2023-01-31T10:18:24.688Z,5.57
2023-01-31T10:20:57.117Z,5.63
2023-01-31T10:23:52.695Z,5.59
2023-01-31T10:26:34.702Z,5.61
2023-01-31T10:29:10.755Z,5.63
2023-01-31T10:31:44.331Z,5.65
2023-01-31T10:34:17.779Z,5.62
2023-01-31T10:36:51.228Z,5.67
2023-01-31T10:39:25.108Z,5.70
2023-01-31T10:41:54.545Z,5.85
2023-01-31T10:44:32.528Z,5.75
2023-01-31T10:47:00.035Z,5.78
2023-01-31T10:49:27.440Z,5.87
2023-01-31T10:52:13.219Z,5.94
2023-01-31T10:54:54.634Z,5.91
2023-01-31T10:57:22.108Z,5.96
2023-01-31T10:59:50.157Z,6.05
2023-01-31T11:02:21.447Z,6.06
2023-01-31T11:04:50.279Z,5.91
2023-01-31T11:07:16.769Z,5.93
2023-01-31T11:09:53.943Z,5.98
2023-01-31T11:12:22.546Z,5.99
2023-01-31T11:15:29.087Z,5.96
2023-01-31T11:18:00.761Z,5.87
2023-01-31T11:20:30.323Z,5.87
2023-01-31T11:22:58.758Z,5.88
2023-01-31T11:25:27.705Z,5.92
2023-01-31T11:27:58.674Z,5.98
2023-01-31T11:30:33.131Z,5.95
2023-01-31T11:32:59.616Z,5.98
2023-01-31T11:35:28.783Z,6.05
2023-01-31T11:38:11.840Z,6.10
2023-01-31T11:40:40.260Z,6.20
2023-01-31T11:43:24.870Z,6.11
2023-01-31T11:46:09.274Z,6.12
2023-01-31T11:48:42.867Z,6.07
2023-01-31T11:51:12.457Z,6.12
2023-01-31T11:53:46.800Z,6.11
2023-01-31T11:56:17.326Z,6.19
2023-01-31T11:58:47.075Z,6.09
2023-01-31T12:01:17.433Z,6.10
2023-01-31T12:04:02.752Z,6.08
2023-01-31T12:06:40.942Z,6.10
2023-01-31T12:09:19.622Z,6.03
2023-01-31T12:12:16.286Z,6.10
2023-01-31T12:14:47.883Z,5.88
2023-01-31T12:17:17.512Z,5.70
2023-01-31T12:20:28.482Z,5.65
2023-01-31T12:23:12.802Z,5.68
2023-01-31T12:26:05.156Z,5.66
2023-01-31T12:28:54.336Z,5.68
2023-01-31T12:31:37.954Z,5.69
2023-01-31T12:34:57.949Z,5.71
2023-01-31T12:37:45.271Z,5.61
2023-01-31T12:40:32.609Z,5.54
2023-01-31T12:43:02.214Z,5.59
2023-01-31T12:45:42.788Z,5.48
2023-01-31T12:48:30.881Z,5.51
2023-01-31T12:51:22.586Z,5.45
2023-01-31T12:54:30.689Z,5.37
2023-01-31T12:57:13.221Z,5.33
2023-01-31T12:59:55.351Z,5.43
2023-01-31T13:02:24.743Z,5.43
2023-01-31T13:05:01.962Z,5.38
2023-01-31T13:07:39.066Z,5.34
2023-01-31T13:10:15.301Z,5.33
2023-01-31T13:12:41.997Z,5.37
2023-01-31T13:15:19.876Z,5.38
2023-01-31T13:17:52.579Z,5.36
2023-01-31T13:20:29.502Z,5.42
2023-01-31T13:22:59.052Z,5.49
2023-01-31T13:25:28.527Z,5.42
2023-01-31T13:28:18.307Z,5.45
2023-01-31T13:30:52.182Z,5.41
2023-01-31T13:33:28.035Z,5.44
2023-01-31T13:36:06.586Z,5.42
2023-01-31T13:38:42.538Z,5.42
2023-01-31T13:41:17.890Z,5.50
2023-01-31T13:43:44.322Z,5.40
2023-01-31T13:46:13.878Z,5.39
2023-01-31T13:48:47.282Z,5.38
2023-01-31T13:51:43.051Z,5.30
2023-01-31T13:54:31.301Z,5.37
2023-01-31T13:56:59.922Z,5.28
2023-01-31T13:59:32.174Z,5.34
2023-01-31T14:02:01.547Z,5.33
2023-01-31T14:04:34.728Z,5.36
2023-01-31T14:07:06.543Z,5.34
2023-01-31T14:09:36.388Z,5.29
2023-01-31T14:12:15.471Z,5.28
2023-01-31T14:14:47.045Z,5.26
2023-01-31T14:17:13.408Z,5.31
2023-01-31T14:19:42.757Z,5.35
2023-01-31T14:22:19.965Z,5.39
2023-01-31T14:24:49.939Z,5.28
2023-01-31T14:27:26.014Z,5.36
2023-01-31T14:30:07.695Z,5.40
2023-01-31T14:33:06.732Z,5.37
2023-01-31T14:35:44.149Z,5.35
2023-01-31T14:38:41.554Z,5.39
2023-01-31T14:41:35.176Z,5.37
2023-01-31T14:45:03.403Z,5.36
2023-01-31T14:47:48.627Z,5.42
2023-01-31T14:50:31.934Z,5.43
2023-01-31T14:53:22.762Z,5.49
2023-01-31T14:56:08.658Z,5.46
2023-01-31T14:58:36.066Z,5.51
2023-01-31T15:01:06.803Z,5.53
2023-01-31T15:03:54.365Z,5.47
2023-01-31T15:06:28.021Z,5.59
2023-01-31T15:09:16.396Z,5.53
2023-01-31T15:11:46.462Z,5.51
2023-01-31T15:14:49.120Z,5.52
2023-01-31T15:17:35.143Z,5.54
2023-01-31T15:20:27.305Z,5.59
2023-01-31T15:22:58.792Z,5.68
2023-01-31T15:25:34.682Z,5.62
2023-01-31T15:28:02.514Z,5.59
2023-01-31T15:30:33.095Z,5.62
2023-01-31T15:33:07.923Z,5.63
2023-01-31T15:35:44.520Z,5.64
2023-01-31T15:38:32.177Z,5.71
2023-01-31T15:41:17.611Z,5.76
2023-01-31T15:43:45.407Z,5.68
2023-01-31T15:46:24.577Z,5.69
2023-01-31T15:48:51.551Z,5.74
2023-01-31T15:51:19.125Z,5.74
2023-01-31T15:53:46.167Z,5.81
2023-01-31T15:56:24.282Z,5.80
2023-01-31T15:58:53.774Z,5.74
2023-01-31T16:01:20.508Z,5.87
2023-01-31T16:03:55.707Z,5.87
2023-01-31T16:06:32.266Z,5.83
2023-01-31T16:09:01.451Z,5.83
2023-01-31T16:11:34.186Z,5.86
2023-01-31T16:14:07.601Z,5.91
2023-01-31T16:16:35.409Z,5.85
2023-01-31T16:19:03.053Z,5.90
2023-01-31T16:21:29.397Z,5.93
2023-01-31T16:24:11.051Z,5.86
2023-01-31T16:26:39.693Z,5.93
2023-01-31T16:29:09.269Z,5.94
2023-01-31T16:31:47.927Z,5.95
2023-01-31T16:34:38.430Z,5.93
2023-01-31T16:37:07.222Z,5.97
2023-01-31T16:39:40.893Z,5.93
2023-01-31T16:42:16.154Z,6.02
2023-01-31T16:44:45.103Z,6.01
2023-01-31T16:47:39.147Z,6.10
2023-01-31T16:50:17.383Z,6.15
2023-01-31T16:52:45.696Z,6.08
2023-01-31T16:55:14.667Z,6.16
2023-01-31T16:57:41.385Z,6.22
2023-01-31T17:00:27.877Z,6.18
2023-01-31T17:02:56.647Z,6.25
2023-01-31T17:05:29.100Z,6.23
2023-01-31T17:07:57.265Z,6.14
2023-01-31T17:10:29.943Z,6.18
2023-01-31T17:13:09.128Z,6.13
2023-01-31T17:15:35.626Z,6.19
2023-01-31T17:18:02.048Z,6.18
2023-01-31T17:20:28.457Z,6.16
2023-01-31T17:23:02.397Z,6.30
2023-01-31T17:25:33.366Z,6.23
2023-01-31T17:28:00.035Z,6.30
2023-01-31T17:30:30.063Z,6.27
2023-01-31T17:32:57.275Z,6.21
2023-01-31T17:35:31.462Z,6.25
2023-01-31T17:37:57.943Z,6.37
2023-01-31T17:40:24.406Z,6.40
2023-01-31T17:42:55.431Z,6.39
2023-01-31T17:45:22.076Z,6.33
2023-01-31T17:47:48.816Z,6.30
2023-01-31T17:50:17.964Z,6.36
2023-01-31T17:52:44.675Z,6.35
2023-01-31T17:55:11.719Z,6.34
2023-01-31T17:57:38.453Z,6.40
2023-01-31T18:00:08.261Z,6.38
2023-01-31T18:02:34.779Z,6.42
2023-01-31T18:05:01.230Z,6.45
2023-01-31T18:07:27.800Z,6.50
2023-01-31T18:09:54.567Z,6.49
2023-01-31T18:12:20.974Z,6.49
2023-01-31T18:14:47.389Z,6.55
2023-01-31T18:17:14.022Z,6.66
2023-01-31T18:19:40.456Z,6.56
2023-01-31T18:22:06.859Z,6.58
2023-01-31T18:24:33.736Z,6.63
2023-01-31T18:27:00.238Z,6.61
2023-01-31T18:29:26.673Z,6.68
2023-01-31T18:31:56.322Z,6.64
2023-01-31T18:34:23.681Z,6.72
2023-01-31T18:36:50.566Z,6.72
2023-01-31T18:39:16.961Z,6.65
2023-01-31T18:41:43.376Z,6.73
2023-01-31T18:44:09.905Z,6.73
2023-01-31T18:46:36.537Z,6.71
2023-01-31T18:49:02.949Z,6.76
2023-01-31T18:51:29.346Z,6.71
2023-01-31T18:53:55.729Z,6.72
2023-01-31T18:56:23.644Z,6.78
2023-01-31T18:58:52.290Z,6.78
2023-01-31T19:01:21.357Z,6.83
2023-01-31T19:03:58.104Z,6.83
2023-01-31T19:06:27.239Z,6.82
2023-01-31T19:08:55.739Z,6.82
2023-01-31T19:11:24.961Z,6.89
2023-01-31T19:13:51.473Z,6.98
2023-01-31T19:16:23.568Z,6.82
2023-01-31T19:18:50.085Z,6.85
2023-01-31T19:21:23.067Z,6.86
2023-01-31T19:23:51.446Z,6.88
2023-01-31T19:26:18.067Z,6.87
2023-01-31T19:28:46.066Z,6.89
2023-01-31T19:31:18.524Z,6.86
2023-01-31T19:33:49.976Z,6.89
2023-01-31T19:36:19.563Z,6.88
2023-01-31T19:38:45.975Z,6.92
2023-01-31T19:41:18.881Z,6.28
2023-01-31T19:43:46.112Z,5.82
2023-01-31T19:46:12.729Z,5.40
2023-01-31T19:48:39.179Z,5.10
2023-01-31T19:51:08.325Z,4.92
2023-01-31T19:53:35.447Z,4.96
2023-01-31T19:56:01.975Z,5.11
2023-01-31T19:58:31.284Z,5.12
2023-01-31T20:01:18.414Z,5.15
2023-01-31T20:03:45.469Z,5.26
2023-01-31T20:06:14.444Z,5.29
2023-01-31T20:08:40.976Z,5.42
2023-01-31T20:11:08.264Z,5.34
2023-01-31T20:13:35.257Z,5.34
2023-01-31T20:16:05.889Z,5.26
2023-01-31T20:18:33.462Z,5.35
2023-01-31T20:21:01.168Z,5.25
2023-01-31T20:23:29.024Z,5.29
2023-01-31T20:25:56.652Z,5.25
2023-01-31T20:28:24.299Z,5.22
2023-01-31T20:30:51.387Z,5.09
2023-01-31T20:33:18.689Z,5.14
2023-01-31T20:35:45.554Z,5.17
2023-01-31T20:38:12.791Z,5.13
2023-01-31T20:40:39.241Z,5.13
2023-01-31T20:43:06.799Z,5.15
2023-01-31T20:45:33.932Z,5.20
2023-01-31T20:48:00.840Z,5.16
2023-01-31T20:50:27.928Z,5.25
2023-01-31T20:52:54.842Z,5.29
2023-01-31T20:55:21.752Z,5.31
2023-01-31T20:57:50.131Z,5.39
2023-01-31T21:00:18.290Z,5.43
2023-01-31T21:02:45.183Z,5.47
2023-01-31T21:05:12.657Z,5.48
2023-01-31T21:07:39.656Z,5.43
2023-01-31T21:10:07.518Z,5.51
2023-01-31T21:12:34.031Z,5.44
2023-01-31T21:15:00.526Z,5.51
2023-01-31T21:17:39.163Z,5.44
2023-01-31T21:20:07.807Z,5.49
2023-01-31T21:22:34.770Z,5.55
2023-01-31T21:25:01.233Z,5.53
2023-01-31T21:27:27.693Z,5.58
2023-01-31T21:29:54.123Z,5.53
2023-01-31T21:32:20.529Z,5.54
2023-01-31T21:34:46.947Z,5.54
2023-01-31T21:37:13.369Z,5.54
2023-01-31T21:39:39.762Z,5.54
2023-01-31T21:42:15.264Z,5.52
2023-01-31T21:44:42.924Z,5.47
2023-01-31T21:47:09.663Z,5.51
2023-01-31T21:49:36.122Z,5.57
2023-01-31T21:52:02.952Z,5.40
2023-01-31T21:54:29.420Z,5.27
2023-01-31T21:56:55.895Z,5.24
2023-01-31T21:59:23.408Z,5.04
2023-01-31T22:01:51.761Z,5.05
2023-01-31T22:04:23.422Z,4.93
2023-01-31T22:06:50.770Z,4.91
2023-01-31T22:09:17.987Z,4.95
2023-01-31T22:11:44.971Z,5.06
2023-01-31T22:14:13.662Z,4.90
2023-01-31T22:16:41.406Z,4.93
2023-01-31T22:19:08.168Z,4.94
2023-01-31T22:21:37.044Z,4.94
2023-01-31T22:24:06.368Z,5.04
2023-01-31T22:26:35.730Z,4.90
2023-01-31T22:29:04.064Z,5.00
2023-01-31T22:31:31.259Z,5.03
2023-01-31T22:33:59.880Z,5.05
2023-01-31T22:36:26.671Z,5.01
2023-01-31T22:38:53.372Z,5.00
2023-01-31T22:41:20.370Z,5.01
2023-01-31T22:43:49.341Z,5.08
2023-01-31T22:46:21.729Z,5.11
2023-01-31T22:48:49.443Z,5.06
2023-01-31T22:51:18.984Z,5.10
2023-01-31T22:53:46.073Z,5.06
2023-01-31T22:56:21.031Z,5.04
2023-01-31T22:58:48.516Z,5.04
2023-01-31T23:01:20.566Z,5.02
2023-01-31T23:03:48.507Z,4.97
2023-01-31T23:06:16.660Z,5.01
2023-01-31T23:08:43.570Z,5.02
2023-01-31T23:11:12.625Z,5.09
2023-01-31T23:13:40.671Z,5.11
2023-01-31T23:16:09.199Z,5.14
2023-01-31T23:18:35.964Z,5.12
2023-01-31T23:21:16.754Z,5.21
2023-01-31T23:23:44.080Z,5.08
2023-01-31T23:26:11.687Z,5.17
2023-01-31T23:28:38.736Z,5.20
2023-01-31T23:31:05.297Z,5.17
2023-01-31T23:33:31.795Z,5.17
2023-01-31T23:35:58.240Z,5.23
2023-01-31T23:38:24.702Z,5.24
2023-01-31T23:40:52.989Z,5.25
2023-01-31T23:43:20.032Z,5.20
2023-01-31T23:45:46.745Z,5.21
2023-01-31T23:48:13.359Z,5.26
2023-01-31T23:50:39.855Z,5.26
2023-01-31T23:53:06.308Z,5.22
2023-01-31T23:55:32.947Z,5.24
2023-01-31T23:57:59.351Z,5.20
